aviador You're here:

KHDO Decoded Metar

HONDO in TX, USA
Report Time2017-09-21 20:51:00
UTC Time2017-09-21 21:22:58
Flight Rules unknown UNKNOWN
Wind170° at 11 Gusting to 15 kt
W.Decomp.*RWY 17: 10.9 kt HW 1.5 kt LCW
RWY 13: 9.3 kt HW 5.8 kt RCW
RWY 08: 1.5 kt HW 10.9 kt RCW
W.Rank170° ranks 8
Current wind is above 170° avg. (8.8)
VisibilityN/A
Phenomena:N/A
Clouds:Few 060 Hf
Expected CloudBase > 7,200 ft AGL from Temp-Dew spread
CeilingNone
Temp37°C (ISA +24)
Dew Point19°C (35% RH)
Heat Index39.3°C
AAT36.3°C
QNH1011 hPa
Density Alt3,973 ft
Elevation925 ft
Report Wrong Elevation
Raw Report
KHDO 212051Z AUTO 17011G15KT FEW060 37/19 A2985 RMK AO2 SLP089
T03670189 58035 $=

Extra information for KHDO:More info

Metar Taf Metar & Taf Last 4 Metars F.Rules Stats Wind Profile Meteogram Temp Stats Airport Information Weather charts Add Link Nearby VenuesMetar ALERT Operation Metar Decoded Social comments

AIRNAV info for KHDO